Time;durP1;ratioP1;P1;durP2;ratioP2;P2;SDS_P1;SDS_P2;PMS_P1;PMS_P2;Temp;Humidity;BMP_temperature;BMP_pressure;BME280_temperature;BME280_humidity;BME280_pressure;Samples;Min_cycle;Max_cycle;Signal;HPM_P1;HPM_P2
2021/05/18 00:00:25;;;;;;;;;;;;;;;;;;1761458;80;20203;-89
2021/05/18 00:02:54;;;;;;;;;;;;;;;;;;1747541;81;20525;-90
2021/05/18 00:05:23;;;;;;;;;;;;;;;;;;1740473;81;20318;-90
2021/05/18 00:12:52;;;;;;;;;;;;;;;;;;1760380;80;20193;-90
2021/05/18 00:15:22;;;;;;;;;;;;;;;;;;1746730;80;20188;-90
2021/05/18 00:17:51;;;;;;;;;;;;;;;;;;1755210;80;20250;-89
2021/05/18 00:20:20;;;;;;;;;;;;;;;;;;1755651;80;20289;-90
2021/05/18 00:26:05;;;;;;;;;;;;;;;;;;1651082;85;20255;-89
2021/05/18 00:28:34;;;;;;;;;;;;;;;;;;1652383;85;20333;-90
2021/05/18 00:31:03;;;;;;;;;;;;;;;;;;1647729;85;20163;-89
2021/05/18 00:33:33;;;;;;;;;;;;;;;;;;1642734;85;20348;-89
2021/05/18 00:36:02;;;;;;;;;;;;;;;;;;1645432;86;20554;-89
2021/05/18 00:38:31;;;;;;;;;;;;;;;;;;1637460;85;20710;-89
2021/05/18 00:41:01;;;;;;;;;;;;;;;;;;1645462;85;20572;-90
2021/05/18 00:43:30;;;;;;;;;;;;;;;;;;1650080;85;20729;-90
2021/05/18 00:45:59;;;;;;;;;;;;;;;;;;1654390;85;20176;-90
2021/05/18 00:48:28;;;;;;;;;;;;;;;;;;1646596;85;20192;-90
2021/05/18 00:50:57;;;;;;;;;;;;;;;;;;1647649;85;20254;-90
2021/05/18 00:53:26;;;;;;;;;;;;;;;;;;1641967;86;20196;-89
2021/05/18 00:56:02;;;;;;;;;;;;;;;;;;1644157;86;20685;-89
2021/05/18 00:58:26;;;;;;;;;;;;;;;;;;1633536;85;20247;-89
2021/05/18 01:00:56;;;;;;;;;;;;;;;;;;1656061;85;20207;-89
2021/05/18 01:03:25;;;;;;;;;;;;;;;;;;1673683;82;20220;-89
2021/05/18 01:06:55;;;;;;;;;;;;;;;;;;1703608;81;20541;-89
2021/05/18 01:08:26;;;;;;;;;;;;;;;;;;1698559;82;20256;-89
2021/05/18 01:10:55;;;;;;;;;;;;;;;;;;1699766;82;20512;-89
2021/05/18 01:13:26;;;;;;;;;;;;;;;;;;1745251;80;20208;-89
2021/05/18 01:15:55;;;;;;;;;;;;;;;;;;1759166;80;20490;-89
2021/05/18 01:18:24;;;;;;;;;;;;;;;;;;1750436;80;20450;-89
2021/05/18 01:20:53;;;;;;;;;;;;;;;;;;1743202;80;20178;-89
2021/05/18 01:23:23;;;;;;;;;;;;;;;;;;1756508;80;20172;-90
2021/05/18 01:25:52;;;;;;;;;;;;;;;;;;1744457;80;20174;-89
2021/05/18 01:28:21;;;;;;;;;;;;;;;;;;1751958;80;20216;-87
2021/05/18 01:30:50;;;;;;;;;;;;;;;;;;1760334;80;20990;-89
2021/05/18 01:33:19;;;;;;;;;;;;;;;;;;1754872;80;20187;-90
2021/05/18 01:35:50;;;;;;;;;;;;;;;;;;1746528;80;20509;-91
2021/05/18 01:38:22;;;;;;;;;;;;;;;;;;1749290;80;20245;-90
2021/05/18 01:43:21;;;;;;;;;;;;;;;;;;1754687;81;20222;-89
2021/05/18 01:45:51;;;;;;;;;;;;;;;;;;1734526;81;20568;-90
2021/05/18 01:48:23;;;;;;;;;;;;;;;;;;1753216;80;20234;-91
2021/05/18 01:50:50;;;;;;;;;;;;;;;;;;1740623;80;20219;-91
2021/05/18 01:53:21;;;;;;;;;;;;;;;;;;1753694;80;20426;-90
2021/05/18 01:58:23;;;;;;;;;;;;;;;;;;1703050;82;20246;-91
2021/05/18 02:00:52;;;;;;;;;;;;;;;;;;1702958;82;20244;-91
2021/05/18 02:03:21;;;;;;;;;;;;;;;;;;1698543;82;20376;-90
2021/05/18 02:05:50;;;;;;;;;;;;;;;;;;1714031;81;20226;-91
2021/05/18 02:08:19;;;;;;;;;;;;;;;;;;1723188;81;20211;-79
2021/05/18 02:10:49;;;;;;;;;;;;;;;;;;1721940;82;20209;-76
2021/05/18 02:13:18;;;;;;;;;;;;;;;;;;1695159;81;20215;-75
2021/05/18 02:15:54;;;;;;;;;;;;;;;;;;1723239;81;20442;-75
2021/05/18 02:20:55;;;;;;;;;;;;;;;;;;1719135;82;20193;-74
2021/05/18 02:25:49;;;;;;;;;;;;;;;;;;1722776;81;20214;-74
2021/05/18 02:28:18;;;;;;;;;;;;;;;;;;1707518;82;20289;-74
2021/05/18 02:30:49;;;;;;;;;;;;;;;;;;1746464;80;20249;-74
2021/05/18 02:33:17;;;;;;;;;;;;;;;;;;1737344;81;20177;-74
2021/05/18 02:35:46;;;;;;;;;;;;;;;;;;1714782;81;20157;-75
2021/05/18 02:38:16;;;;;;;;;;;;;;;;;;1719768;82;20262;-76
2021/05/18 02:40:45;;;;;;;;;;;;;;;;;;1729051;82;20241;-75
2021/05/18 02:43:20;;;;;;;;;;;;;;;;;;1709862;82;20245;-75
2021/05/18 02:50:46;;;;;;;;;;;;;;;;;;1727780;81;20249;-77
2021/05/18 02:53:15;;;;;;;;;;;;;;;;;;1740075;81;20669;-76
2021/05/18 02:58:13;;;;;;;;;;;;;;;;;;1735643;82;20254;-76
2021/05/18 03:00:42;;;;;;;;;;;;;;;;;;1725962;83;20188;-77
2021/05/18 03:03:11;;;;;;;;;;;;;;;;;;1697880;83;20204;-76
2021/05/18 03:05:40;;;;;;;;;;;;;;;;;;1724141;82;20241;-75
2021/05/18 03:08:10;;;;;;;;;;;;;;;;;;1695468;83;20138;-76
2021/05/18 03:10:39;;;;;;;;;;;;;;;;;;1712194;83;20213;-75
2021/05/18 03:13:08;;;;;;;;;;;;;;;;;;1708493;81;20191;-76
2021/05/18 03:15:38;;;;;;;;;;;;;;;;;;1691790;83;20214;-77
2021/05/18 03:18:07;;;;;;;;;;;;;;;;;;1694184;83;20201;-78
2021/05/18 03:20:36;;;;;;;;;;;;;;;;;;1702017;83;20690;-76
2021/05/18 03:23:05;;;;;;;;;;;;;;;;;;1701654;83;20253;-77
2021/05/18 03:25:35;;;;;;;;;;;;;;;;;;1704218;83;20205;-76
2021/05/18 03:28:05;;;;;;;;;;;;;;;;;;1708229;83;20485;-75
2021/05/18 03:35:34;;;;;;;;;;;;;;;;;;1719261;83;20240;-76
2021/05/18 03:38:13;;;;;;;;;;;;;;;;;;1724938;81;20516;-77
2021/05/18 03:40:35;;;;;;;;;;;;;;;;;;1725454;81;20223;-76
2021/05/18 03:45:38;;;;;;;;;;;;;;;;;;1718616;82;20668;-73
2021/05/18 04:13:20;;;;;;;;;;;;;;;;;;1752334;80;20204;-78
2021/05/18 04:18:12;;;;;;;;;;;;;;;;;;1758120;80;20554;-78
2021/05/18 04:26:01;;;;;;;;;;;;;;;;;;1749771;81;20210;-74
2021/05/18 05:15:41;;;;;;;;;;;;;;;;;;1714734;82;20463;-77
2021/05/18 05:18:11;;;;;;;;;;;;;;;;;;1716356;83;20195;-77
2021/05/18 05:20:41;;;;;;;;;;;;;;;;;;1704666;82;20325;-77
2021/05/18 05:23:10;;;;;;;;;;;;;;;;;;1700291;83;20186;-77
2021/05/18 05:25:39;;;;;;;;;;;;;;;;;;1709874;83;20163;-76
2021/05/18 05:28:08;;;;;;;;;;;;;;;;;;1720773;83;20202;-77
2021/05/18 05:30:38;;;;;;;;;;;;;;;;;;1730610;81;20255;-76
2021/05/18 05:33:07;;;;;;;;;;;;;;;;;;1737449;81;20189;-76
2021/05/18 05:35:36;;;;;;;;;;;;;;;;;;1739303;81;20233;-77
2021/05/18 05:38:06;;;;;;;;;;;;;;;;;;1730373;81;20267;-78
2021/05/18 05:40:37;;;;;;;;;;;;;;;;;;1702597;83;20194;-77
2021/05/18 05:43:06;;;;;;;;;;;;;;;;;;1725386;82;20216;-76
2021/05/18 05:45:35;;;;;;;;;;;;;;;;;;1730630;83;20229;-77
2021/05/18 05:48:05;;;;;;;;;;;;;;;;;;1721331;81;20207;-76
2021/05/18 05:50:34;;;;;;;;;;;;;;;;;;1711072;82;20135;-76
2021/05/18 05:53:05;;;;;;;;;;;;;;;;;;1760871;80;20136;-76
2021/05/18 05:55:34;;;;;;;;;;;;;;;;;;1755732;81;20513;-76
2021/05/18 05:58:03;;;;;;;;;;;;;;;;;;1742613;81;20239;-77
2021/05/18 06:00:32;;;;;;;;;;;;;;;;;;1757192;81;20216;-77
2021/05/18 06:03:01;;;;;;;;;;;;;;;;;;1750661;82;20223;-77
2021/05/18 06:05:30;;;;;;;;;;;;;;;;;;1758794;80;20242;-77
2021/05/18 06:07:59;;;;;;;;;;;;;;;;;;1747215;81;20466;-77
2021/05/18 06:10:32;;;;;;;;;;;;;;;;;;1734381;81;20144;-77
2021/05/18 07:05:56;;;;;;;;;;;;;;;;;;1807522;78;20229;-77
2021/05/18 07:10:49;;;;;;;;;;;;;;;;;;1794624;78;20174;-79
2021/05/18 07:13:18;;;;;;;;;;;;;;;;;;1804403;78;20200;-79
2021/05/18 07:15:47;;;;;;;;;;;;;;;;;;1806162;77;20496;-79
2021/05/18 07:18:16;;;;;;;;;;;;;;;;;;1821604;78;20319;-79
2021/05/18 07:20:46;;;;;;;;;;;;;;;;;;1819402;79;20242;-79
2021/05/18 07:23:21;;;;;;;;;;;;;;;;;;1804370;78;20227;-78
2021/05/18 07:25:47;;;;;;;;;;;;;;;;;;1805613;78;20190;-78
2021/05/18 07:28:19;;;;;;;;;;;;;;;;;;1808786;78;20204;-79
2021/05/18 07:30:48;;;;;;;;;;;;;;;;;;1813179;78;20202;-79
2021/05/18 07:33:18;;;;;;;;;;;;;;;;;;1815340;79;20449;-77
2021/05/18 07:35:47;;;;;;;;;;;;;;;;;;1802187;79;20587;-79
2021/05/18 07:41:04;;;;;;;;;;;;;;;;;;1739376;81;20165;-80
2021/05/18 07:43:34;;;;;;;;;;;;;;;;;;1739601;81;20202;-78
2021/05/18 07:46:05;;;;;;;;;;;;;;;;;;1720825;83;20443;-79
2021/05/18 08:02:20;;;;;;;;;;;;;;;;;;1759522;80;20207;-79
2021/05/18 08:06:10;;;;;;;;;;;;;;;;;;1739380;80;20132;-79
2021/05/18 08:08:40;;;;;;;;;;;;;;;;;;1776633;80;20222;-75
2021/05/18 08:11:09;;;;;;;;;;;;;;;;;;1768299;80;20194;-77
2021/05/18 08:13:39;;;;;;;;;;;;;;;;;;1772989;80;20185;-78
2021/05/18 10:14:59;;;;;;;;;;;;;;;;;;1780426;79;20208;-78
2021/05/18 10:22:23;;;;;;;;;;;;;;;;;;1771914;79;20252;-77
2021/05/18 10:27:24;;;;;;;;;;;;;;;;;;1720318;82;20446;-77
2021/05/18 10:34:29;;;;;;;;;;;;;;;;;;1770303;80;20198;-78
2021/05/18 10:36:58;;;;;;;;;;;;;;;;;;1782477;79;20214;-77
2021/05/18 10:39:30;;;;;;;;;;;;;;;;;;1753321;82;20145;-77
2021/05/18 10:41:58;;;;;;;;;;;;;;;;;;1732481;81;20179;-77
2021/05/18 10:44:27;;;;;;;;;;;;;;;;;;1721516;82;20495;-77
2021/05/18 10:46:57;;;;;;;;;;;;;;;;;;1730823;81;20206;-77
2021/05/18 10:49:26;;;;;;;;;;;;;;;;;;1737189;81;20135;-77
2021/05/18 10:51:55;;;;;;;;;;;;;;;;;;1713836;83;20190;-77
2021/05/18 10:54:24;;;;;;;;;;;;;;;;;;1742307;81;20415;-77
2021/05/18 10:56:58;;;;;;;;;;;;;;;;;;1742785;82;20502;-77
2021/05/18 10:59:24;;;;;;;;;;;;;;;;;;1786365;79;20160;-80
2021/05/18 11:01:54;;;;;;;;;;;;;;;;;;1764000;80;20214;-78
2021/05/18 11:04:23;;;;;;;;;;;;;;;;;;1779478;80;20143;-77
2021/05/18 11:06:52;;;;;;;;;;;;;;;;;;1751498;81;20403;-78
2021/05/18 11:09:21;;;;;;;;;;;;;;;;;;1723526;82;20242;-78
2021/05/18 11:11:50;;;;;;;;;;;;;;;;;;1727192;82;20240;-77
2021/05/18 11:14:20;;;;;;;;;;;;;;;;;;1745089;80;20215;-78
2021/05/18 11:16:49;;;;;;;;;;;;;;;;;;1753987;80;20216;-76
2021/05/18 11:19:18;;;;;;;;;;;;;;;;;;1732155;83;20264;-77
2021/05/18 11:21:48;;;;;;;;;;;;;;;;;;1727184;81;20203;-77
2021/05/18 11:24:17;;;;;;;;;;;;;;;;;;1715221;82;20143;-78
2021/05/18 11:26:46;;;;;;;;;;;;;;;;;;1729277;81;20643;-77
2021/05/18 11:29:15;;;;;;;;;;;;;;;;;;1774530;79;20259;-78
2021/05/18 11:31:45;;;;;;;;;;;;;;;;;;1794577;79;20589;-77
2021/05/18 11:34:14;;;;;;;;;;;;;;;;;;1792074;79;20433;-78
2021/05/18 11:36:43;;;;;;;;;;;;;;;;;;1772874;80;20181;-79
2021/05/18 11:39:16;;;;;;;;;;;;;;;;;;1781050;79;20551;-80
2021/05/18 11:41:45;;;;;;;;;;;;;;;;;;1767984;80;20206;-80
2021/05/18 11:44:14;;;;;;;;;;;;;;;;;;1773401;80;20174;-78
2021/05/18 11:46:43;;;;;;;;;;;;;;;;;;1762261;80;20668;-78
2021/05/18 11:49:13;;;;;;;;;;;;;;;;;;1760284;80;20167;-77
2021/05/18 11:51:46;;;;;;;;;;;;;;;;;;1766500;80;20263;-77
2021/05/18 11:54:14;;;;;;;;;;;;;;;;;;1726712;81;20155;-81
2021/05/18 11:56:44;;;;;;;;;;;;;;;;;;1751259;81;20169;-78
2021/05/18 11:59:13;;;;;;;;;;;;;;;;;;1738662;82;20654;-78
2021/05/18 12:01:43;;;;;;;;;;;;;;;;;;1781878;80;20290;-77
2021/05/18 12:04:13;;;;;;;;;;;;;;;;;;1755249;81;20236;-77
2021/05/18 12:06:42;;;;;;;;;;;;;;;;;;1750345;82;20211;-79
2021/05/18 12:09:14;;;;;;;;;;;;;;;;;;1788273;79;20210;-77
2021/05/18 12:11:42;;;;;;;;;;;;;;;;;;1765596;80;20177;-77
2021/05/18 12:14:11;;;;;;;;;;;;;;;;;;1764595;80;20187;-78
2021/05/18 12:16:41;;;;;;;;;;;;;;;;;;1764937;81;20137;-77
2021/05/18 12:19:10;;;;;;;;;;;;;;;;;;1749552;80;20145;-77
2021/05/18 12:21:39;;;;;;;;;;;;;;;;;;1750558;80;20188;-78
2021/05/18 12:24:09;;;;;;;;;;;;;;;;;;1745448;81;20176;-77
2021/05/18 12:26:38;;;;;;;;;;;;;;;;;;1712776;83;20505;-75
2021/05/18 12:29:08;;;;;;;;;;;;;;;;;;1721089;81;20228;-76
2021/05/18 12:31:37;;;;;;;;;;;;;;;;;;1722777;81;20514;-75
2021/05/18 12:34:07;;;;;;;;;;;;;;;;;;1728930;81;20523;-77
2021/05/18 12:36:36;;;;;;;;;;;;;;;;;;1773789;79;20457;-76
2021/05/18 12:39:05;;;;;;;;;;;;;;;;;;1750637;81;20212;-76
2021/05/18 12:41:34;;;;;;;;;;;;;;;;;;1732877;81;20207;-75
2021/05/18 12:44:03;;;;;;;;;;;;;;;;;;1735745;81;20223;-76
2021/05/18 12:46:32;;;;;;;;;;;;;;;;;;1779906;79;20486;-75
2021/05/18 12:49:01;;;;;;;;;;;;;;;;;;1776116;80;20260;-76
2021/05/18 12:51:31;;;;;;;;;;;;;;;;;;1781307;80;20669;-76
2021/05/18 12:54:00;;;;;;;;;;;;;;;;;;1781261;79;20183;-76
2021/05/18 12:56:29;;;;;;;;;;;;;;;;;;1781790;79;20154;-75
2021/05/18 12:58:58;;;;;;;;;;;;;;;;;;1776988;80;20503;-75
2021/05/18 13:01:29;;;;;;;;;;;;;;;;;;1771844;80;20211;-76
2021/05/18 13:03:58;;;;;;;;;;;;;;;;;;1768273;81;20246;-77
2021/05/18 13:06:28;;;;;;;;;;;;;;;;;;1774482;80;20649;-75
2021/05/18 13:08:57;;;;;;;;;;;;;;;;;;1749530;81;20320;-75
2021/05/18 13:13:59;;;;;;;;;;;;;;;;;;1741508;80;20236;-75
2021/05/18 13:16:28;;;;;;;;;;;;;;;;;;1731991;81;20255;-76
2021/05/18 13:19:00;;;;;;;;;;;;;;;;;;1745793;80;20260;-76
2021/05/18 13:21:32;;;;;;;;;;;;;;;;;;1777000;80;20182;-75
2021/05/18 13:26:30;;;;;;;;;;;;;;;;;;1780844;80;20592;-83
2021/05/18 13:28:59;;;;;;;;;;;;;;;;;;1783549;79;20280;-88
2021/05/18 13:31:28;;;;;;;;;;;;;;;;;;1780519;80;20315;-86
2021/05/18 13:33:57;;;;;;;;;;;;;;;;;;1777156;79;20177;-90
2021/05/18 13:36:33;;;;;;;;;;;;;;;;;;1768485;80;20357;-87
2021/05/18 13:39:01;;;;;;;;;;;;;;;;;;1776992;80;20231;-88
2021/05/18 13:41:29;;;;;;;;;;;;;;;;;;1762482;80;20291;-86
2021/05/18 13:44:00;;;;;;;;;;;;;;;;;;1772565;79;20510;-89
2021/05/18 13:46:29;;;;;;;;;;;;;;;;;;1764874;80;20272;-89
2021/05/18 13:49:21;;;;;;;;;;;;;;;;;;1771281;81;20245;-89
2021/05/18 13:51:51;;;;;;;;;;;;;;;;;;1762616;80;20231;-88
2021/05/18 13:54:22;;;;;;;;;;;;;;;;;;1771290;79;20163;-89
2021/05/18 13:56:51;;;;;;;;;;;;;;;;;;1773953;80;20189;-89
2021/05/18 13:59:20;;;;;;;;;;;;;;;;;;1743613;80;20176;-89
2021/05/18 14:01:51;;;;;;;;;;;;;;;;;;1776976;79;20182;-88
2021/05/18 14:04:20;;;;;;;;;;;;;;;;;;1774341;80;20262;-89
2021/05/18 14:06:55;;;;;;;;;;;;;;;;;;1777197;79;20229;-88
2021/05/18 14:09:20;;;;;;;;;;;;;;;;;;1761276;79;20283;-90
2021/05/18 14:11:49;;;;;;;;;;;;;;;;;;1765067;80;20197;-89
2021/05/18 14:14:18;;;;;;;;;;;;;;;;;;1779235;79;20188;-89
2021/05/18 14:16:47;;;;;;;;;;;;;;;;;;1764925;80;20215;-90
2021/05/18 14:19:18;;;;;;;;;;;;;;;;;;1777464;77;20167;-86
2021/05/18 14:21:47;;;;;;;;;;;;;;;;;;1779861;77;20214;-86
2021/05/18 14:24:23;;;;;;;;;;;;;;;;;;1779628;77;20166;-86
2021/05/18 14:26:53;;;;;;;;;;;;;;;;;;1792146;77;20440;-87
2021/05/18 14:29:24;;;;;;;;;;;;;;;;;;1778607;79;20190;-87
2021/05/18 14:31:48;;;;;;;;;;;;;;;;;;1781019;78;20587;-87
2021/05/18 14:34:19;;;;;;;;;;;;;;;;;;1778809;79;20207;-89
2021/05/18 14:36:51;;;;;;;;;;;;;;;;;;1772004;80;20198;-89
2021/05/18 14:39:25;;;;;;;;;;;;;;;;;;1776593;78;20247;-91
2021/05/18 14:44:28;;;;;;;;;;;;;;;;;;1768169;80;20460;-88
2021/05/18 14:47:03;;;;;;;;;;;;;;;;;;1765695;80;20525;-91
2021/05/18 14:57:08;;;;;;;;;;;;;;;;;;1731809;81;20217;-91
2021/05/18 14:59:40;;;;;;;;;;;;;;;;;;1727052;82;20202;-91
2021/05/18 15:02:08;;;;;;;;;;;;;;;;;;1741573;80;20631;-91
2021/05/18 15:04:38;;;;;;;;;;;;;;;;;;1779945;80;20203;-90
2021/05/18 15:07:07;;;;;;;;;;;;;;;;;;1764521;80;20185;-91
2021/05/18 15:09:39;;;;;;;;;;;;;;;;;;1773072;80;20194;-90
2021/05/18 15:12:08;;;;;;;;;;;;;;;;;;1777547;80;20219;-90
2021/05/18 15:14:38;;;;;;;;;;;;;;;;;;1784085;80;20254;-91
2021/05/18 15:17:11;;;;;;;;;;;;;;;;;;1785540;80;20162;-91
2021/05/18 15:19:40;;;;;;;;;;;;;;;;;;1778389;79;20131;-91
2021/05/18 15:22:09;;;;;;;;;;;;;;;;;;1783518;80;20166;-90
2021/05/18 15:24:38;;;;;;;;;;;;;;;;;;1780761;80;20192;-90
2021/05/18 15:27:10;;;;;;;;;;;;;;;;;;1795284;79;20238;-89
2021/05/18 15:29:39;;;;;;;;;;;;;;;;;;1782209;80;20123;-88
2021/05/18 15:32:07;;;;;;;;;;;;;;;;;;1780785;80;20174;-91
2021/05/18 15:34:37;;;;;;;;;;;;;;;;;;1773868;80;20207;-89
2021/05/18 15:37:06;;;;;;;;;;;;;;;;;;1781800;79;20628;-90
2021/05/18 15:39:36;;;;;;;;;;;;;;;;;;1759492;80;20225;-90
2021/05/18 15:42:05;;;;;;;;;;;;;;;;;;1771163;79;20147;-90
2021/05/18 15:44:34;;;;;;;;;;;;;;;;;;1757672;80;20229;-90
2021/05/18 15:47:03;;;;;;;;;;;;;;;;;;1776122;80;20167;-89
2021/05/18 15:49:33;;;;;;;;;;;;;;;;;;1769921;80;20241;-87
2021/05/18 15:52:02;;;;;;;;;;;;;;;;;;1749139;80;20156;-89
2021/05/18 15:54:33;;;;;;;;;;;;;;;;;;1765162;80;20149;-90
2021/05/18 15:57:02;;;;;;;;;;;;;;;;;;1758420;80;20208;-88
2021/05/18 15:59:31;;;;;;;;;;;;;;;;;;1761186;80;20233;-91
2021/05/18 16:02:01;;;;;;;;;;;;;;;;;;1752026;81;20251;-90
2021/05/18 16:04:30;;;;;;;;;;;;;;;;;;1745173;82;20506;-90
2021/05/18 16:07:05;;;;;;;;;;;;;;;;;;1724226;82;20422;-90
2021/05/18 16:09:29;;;;;;;;;;;;;;;;;;1779050;80;20178;-90
2021/05/18 16:11:59;;;;;;;;;;;;;;;;;;1772197;81;20442;-90
2021/05/18 16:14:28;;;;;;;;;;;;;;;;;;1779809;80;20131;-91
2021/05/18 16:16:57;;;;;;;;;;;;;;;;;;1753659;80;20244;-90
2021/05/18 16:19:27;;;;;;;;;;;;;;;;;;1773021;79;20160;-90
2021/05/18 16:21:57;;;;;;;;;;;;;;;;;;1775678;79;20218;-89
2021/05/18 16:24:27;;;;;;;;;;;;;;;;;;1779747;79;20166;-90
2021/05/18 16:27:05;;;;;;;;;;;;;;;;;;1786657;79;20143;-89
2021/05/18 16:29:34;;;;;;;;;;;;;;;;;;1751440;81;20147;-91
2021/05/18 16:32:03;;;;;;;;;;;;;;;;;;1764315;81;20261;-90
2021/05/18 16:34:33;;;;;;;;;;;;;;;;;;1761918;81;20202;-90
2021/05/18 16:37:04;;;;;;;;;;;;;;;;;;1749841;82;20137;-89
2021/05/18 16:39:33;;;;;;;;;;;;;;;;;;1760578;80;20235;-89
2021/05/18 16:42:02;;;;;;;;;;;;;;;;;;1750094;81;20454;-89
2021/05/18 16:44:31;;;;;;;;;;;;;;;;;;1762969;80;20223;-89
2021/05/18 16:47:00;;;;;;;;;;;;;;;;;;1756297;80;20234;-89
2021/05/18 16:49:29;;;;;;;;;;;;;;;;;;1752685;79;20493;-88
2021/05/18 16:51:59;;;;;;;;;;;;;;;;;;1756873;80;20141;-88
2021/05/18 16:54:28;;;;;;;;;;;;;;;;;;1728411;81;20265;-89
2021/05/18 16:56:57;;;;;;;;;;;;;;;;;;1720054;82;20249;-89
2021/05/18 16:59:26;;;;;;;;;;;;;;;;;;1724597;82;20689;-89
2021/05/18 17:01:56;;;;;;;;;;;;;;;;;;1755665;80;20227;-86
2021/05/18 17:04:26;;;;;;;;;;;;;;;;;;1764817;80;20205;-89
2021/05/18 17:06:57;;;;;;;;;;;;;;;;;;1780922;80;20457;-89
2021/05/18 17:09:26;;;;;;;;;;;;;;;;;;1788723;79;20425;-89
2021/05/18 17:11:56;;;;;;;;;;;;;;;;;;1773622;80;20171;-89
2021/05/18 17:14:25;;;;;;;;;;;;;;;;;;1770789;79;20210;-89
2021/05/18 17:16:56;;;;;;;;;;;;;;;;;;1780621;80;20186;-87
2021/05/18 17:19:25;;;;;;;;;;;;;;;;;;1752725;81;20247;-88
2021/05/18 17:21:59;;;;;;;;;;;;;;;;;;1748641;80;20504;-90
2021/05/18 17:24:28;;;;;;;;;;;;;;;;;;1743277;81;20138;-90
2021/05/18 17:26:58;;;;;;;;;;;;;;;;;;1779729;79;20494;-88
2021/05/18 17:29:29;;;;;;;;;;;;;;;;;;1782894;79;20264;-89
2021/05/18 17:32:01;;;;;;;;;;;;;;;;;;1778268;80;20191;-88
2021/05/18 17:34:30;;;;;;;;;;;;;;;;;;1773355;79;20191;-89
2021/05/18 17:36:59;;;;;;;;;;;;;;;;;;1774449;79;20560;-88
2021/05/18 17:39:29;;;;;;;;;;;;;;;;;;1764797;80;20210;-89
2021/05/18 17:41:58;;;;;;;;;;;;;;;;;;1768377;80;20508;-90
2021/05/18 17:44:28;;;;;;;;;;;;;;;;;;1778192;80;20176;-90
2021/05/18 17:47:01;;;;;;;;;;;;;;;;;;1749857;81;20141;-90
2021/05/18 17:49:30;;;;;;;;;;;;;;;;;;1735844;81;20190;-89
2021/05/18 17:52:01;;;;;;;;;;;;;;;;;;1757054;80;20227;-90
2021/05/18 17:54:30;;;;;;;;;;;;;;;;;;1762146;80;20171;-89
2021/05/18 17:57:01;;;;;;;;;;;;;;;;;;1716575;82;20146;-88
2021/05/18 17:59:29;;;;;;;;;;;;;;;;;;1778121;79;20198;-89
2021/05/18 18:02:00;;;;;;;;;;;;;;;;;;1776486;79;20273;-90
2021/05/18 18:04:29;;;;;;;;;;;;;;;;;;1778114;78;20240;-88
2021/05/18 18:06:59;;;;;;;;;;;;;;;;;;1791918;78;20276;-88
2021/05/18 18:09:29;;;;;;;;;;;;;;;;;;1781078;79;20167;-87
2021/05/18 18:11:58;;;;;;;;;;;;;;;;;;1778345;78;20194;-85
2021/05/18 18:14:27;;;;;;;;;;;;;;;;;;1776444;79;20214;-86
2021/05/18 18:16:58;;;;;;;;;;;;;;;;;;1771040;79;20245;-90
2021/05/18 18:19:27;;;;;;;;;;;;;;;;;;1781793;78;20198;-89
2021/05/18 18:21:56;;;;;;;;;;;;;;;;;;1789805;78;20136;-88
2021/05/18 18:24:25;;;;;;;;;;;;;;;;;;1773263;79;20245;-88
2021/05/18 18:27:12;;;;;;;;;;;;;;;;;;1777066;79;20154;-88
2021/05/18 18:29:41;;;;;;;;;;;;;;;;;;1780790;79;20731;-89
2021/05/18 18:32:10;;;;;;;;;;;;;;;;;;1781799;79;20215;-90
2021/05/18 18:34:40;;;;;;;;;;;;;;;;;;1773945;79;20458;-90
2021/05/18 18:37:11;;;;;;;;;;;;;;;;;;1764885;80;20238;-87
2021/05/18 18:39:40;;;;;;;;;;;;;;;;;;1721524;82;20222;-90
2021/05/18 18:42:09;;;;;;;;;;;;;;;;;;1770303;80;20219;-89
2021/05/18 18:44:38;;;;;;;;;;;;;;;;;;1775144;79;20174;-89
2021/05/18 18:47:11;;;;;;;;;;;;;;;;;;1774641;78;20202;-88
2021/05/18 18:49:41;;;;;;;;;;;;;;;;;;1774239;78;20260;-87
2021/05/18 18:52:12;;;;;;;;;;;;;;;;;;1769539;79;20234;-86
2021/05/18 18:54:39;;;;;;;;;;;;;;;;;;1763707;79;20186;-89
2021/05/18 18:57:08;;;;;;;;;;;;;;;;;;1784116;79;20269;-89
2021/05/18 18:59:37;;;;;;;;;;;;;;;;;;1766467;80;20614;-89
2021/05/18 19:02:07;;;;;;;;;;;;;;;;;;1783645;79;20197;-90
2021/05/18 19:04:40;;;;;;;;;;;;;;;;;;1754536;80;20232;-87
2021/05/18 19:07:22;;;;;;;;;;;;;;;;;;1764069;80;20173;-88
2021/05/18 19:14:38;;;;;;;;;;;;;;;;;;1774192;79;20230;-89
2021/05/18 19:17:08;;;;;;;;;;;;;;;;;;1772092;79;20215;-89
2021/05/18 19:19:37;;;;;;;;;;;;;;;;;;1781794;79;20217;-89
2021/05/18 19:22:07;;;;;;;;;;;;;;;;;;1774665;79;20248;-88
2021/05/18 19:24:37;;;;;;;;;;;;;;;;;;1751900;80;20410;-89
2021/05/18 19:27:06;;;;;;;;;;;;;;;;;;1764162;80;20216;-90
2021/05/18 19:29:35;;;;;;;;;;;;;;;;;;1760469;80;20211;-89
2021/05/18 19:32:04;;;;;;;;;;;;;;;;;;1762044;80;20171;-89
2021/05/18 19:34:40;;;;;;;;;;;;;;;;;;1781216;78;20491;-89
2021/05/18 19:49:53;;;;;;;;;;;;;;;;;;1750479;80;20240;-89
2021/05/18 19:52:10;;;;;;;;;;;;;;;;;;1754490;80;20253;-89
2021/05/18 19:54:39;;;;;;;;;;;;;;;;;;1717693;82;20250;-88
2021/05/18 19:57:23;;;;;;;;;;;;;;;;;;1771188;80;20276;-89
2021/05/18 20:10:17;;;;;;;;;;;;;;;;;;1770384;79;20500;-87
2021/05/18 20:22:16;;;;;;;;;;;;;;;;;;1775073;79;20208;-90
2021/05/18 20:24:43;;;;;;;;;;;;;;;;;;1744412;80;20180;-91
2021/05/18 20:27:12;;;;;;;;;;;;;;;;;;1712033;81;20217;-90
2021/05/18 20:29:42;;;;;;;;;;;;;;;;;;1748365;81;20208;-87
2021/05/18 20:32:12;;;;;;;;;;;;;;;;;;1761785;80;20386;-89
2021/05/18 20:39:51;;;;;;;;;;;;;;;;;;1749248;81;20172;-90
2021/05/18 20:42:14;;;;;;;;;;;;;;;;;;1717587;82;20712;-89
2021/05/18 20:44:44;;;;;;;;;;;;;;;;;;1710018;81;20214;-88
2021/05/18 20:47:13;;;;;;;;;;;;;;;;;;1728966;81;20637;-90
2021/05/18 20:52:43;;;;;;;;;;;;;;;;;;1691765;82;20278;-86
2021/05/18 20:55:12;;;;;;;;;;;;;;;;;;1734906;79;20212;-89
2021/05/18 20:57:51;;;;;;;;;;;;;;;;;;1679115;82;20258;-89
2021/05/18 21:00:23;;;;;;;;;;;;;;;;;;1685944;80;20268;-89
2021/05/18 21:03:05;;;;;;;;;;;;;;;;;;1711787;78;20209;-89
2021/05/18 21:05:52;;;;;;;;;;;;;;;;;;1732164;81;20170;-87
2021/05/18 21:08:33;;;;;;;;;;;;;;;;;;1724802;81;20471;-88
2021/05/18 21:13:43;;;;;;;;;;;;;;;;;;1718711;81;20344;-89
2021/05/18 21:15:53;;;;;;;;;;;;;;;;;;1727208;81;20245;-88
2021/05/18 21:18:22;;;;;;;;;;;;;;;;;;1707714;82;20195;-90
2021/05/18 21:20:52;;;;;;;;;;;;;;;;;;1708627;82;20581;-90
2021/05/18 21:23:21;;;;;;;;;;;;;;;;;;1726462;81;20256;-87
2021/05/18 21:25:50;;;;;;;;;;;;;;;;;;1700263;82;20155;-89
2021/05/18 21:28:23;;;;;;;;;;;;;;;;;;1708648;82;20184;-88
2021/05/18 21:30:51;;;;;;;;;;;;;;;;;;1763048;79;20643;-90
2021/05/18 21:33:20;;;;;;;;;;;;;;;;;;1714262;81;20209;-90
2021/05/18 21:35:49;;;;;;;;;;;;;;;;;;1783998;79;20197;-89
2021/05/18 21:38:18;;;;;;;;;;;;;;;;;;1792837;78;20237;-90
2021/05/18 21:40:55;;;;;;;;;;;;;;;;;;1771137;79;20200;-90
2021/05/18 21:43:18;;;;;;;;;;;;;;;;;;1750370;80;20291;-88
2021/05/18 21:45:47;;;;;;;;;;;;;;;;;;1751506;81;20179;-90
2021/05/18 21:48:17;;;;;;;;;;;;;;;;;;1779993;79;20265;-91
2021/05/18 21:50:46;;;;;;;;;;;;;;;;;;1778464;79;20183;-89
2021/05/18 21:53:16;;;;;;;;;;;;;;;;;;1778773;79;20731;-90
2021/05/18 21:55:45;;;;;;;;;;;;;;;;;;1753412;80;20702;-88
2021/05/18 21:58:14;;;;;;;;;;;;;;;;;;1753494;80;20192;-90
2021/05/18 22:00:43;;;;;;;;;;;;;;;;;;1758453;80;20475;-92
2021/05/18 22:03:12;;;;;;;;;;;;;;;;;;1786376;79;20210;-90
2021/05/18 22:05:48;;;;;;;;;;;;;;;;;;1769690;80;20552;-90
2021/05/18 22:08:18;;;;;;;;;;;;;;;;;;1769609;79;20221;-89
2021/05/18 22:10:58;;;;;;;;;;;;;;;;;;1744566;81;20652;-87
2021/05/18 22:13:30;;;;;;;;;;;;;;;;;;1734436;81;20203;-90
2021/05/18 22:28:16;;;;;;;;;;;;;;;;;;1770219;78;20255;-89
2021/05/18 22:30:46;;;;;;;;;;;;;;;;;;1757131;80;20296;-90
2021/05/18 22:33:15;;;;;;;;;;;;;;;;;;1768136;80;20220;-90
2021/05/18 22:35:45;;;;;;;;;;;;;;;;;;1774972;80;20131;-91
2021/05/18 22:38:14;;;;;;;;;;;;;;;;;;1770586;80;20656;-90
2021/05/18 22:40:43;;;;;;;;;;;;;;;;;;1758815;80;20459;-90
2021/05/18 22:43:12;;;;;;;;;;;;;;;;;;1764782;79;20206;-90
2021/05/18 22:45:41;;;;;;;;;;;;;;;;;;1755485;80;20236;-89
2021/05/18 22:48:10;;;;;;;;;;;;;;;;;;1764839;80;20217;-90
2021/05/18 22:50:40;;;;;;;;;;;;;;;;;;1765684;80;20262;-89
2021/05/18 22:53:09;;;;;;;;;;;;;;;;;;1761316;80;20230;-89
2021/05/18 22:55:38;;;;;;;;;;;;;;;;;;1765604;80;20251;-90
2021/05/18 22:58:07;;;;;;;;;;;;;;;;;;1771775;80;20218;-91
2021/05/18 23:00:36;;;;;;;;;;;;;;;;;;1781155;80;20236;-90
2021/05/18 23:03:06;;;;;;;;;;;;;;;;;;1767114;80;20257;-89
2021/05/18 23:05:35;;;;;;;;;;;;;;;;;;1759632;80;20179;-91
2021/05/18 23:08:05;;;;;;;;;;;;;;;;;;1772818;80;20376;-91
2021/05/18 23:10:34;;;;;;;;;;;;;;;;;;1770969;80;20190;-90
2021/05/18 23:13:03;;;;;;;;;;;;;;;;;;1748295;81;21019;-90
2021/05/18 23:15:32;;;;;;;;;;;;;;;;;;1771244;79;20431;-89
2021/05/18 23:18:01;;;;;;;;;;;;;;;;;;1769075;80;20527;-89
2021/05/18 23:20:30;;;;;;;;;;;;;;;;;;1780032;79;20508;-91
2021/05/18 23:22:59;;;;;;;;;;;;;;;;;;1773090;79;20255;-90
2021/05/18 23:25:28;;;;;;;;;;;;;;;;;;1769681;80;20211;-89
2021/05/18 23:27:58;;;;;;;;;;;;;;;;;;1777908;80;20189;-91
2021/05/18 23:30:27;;;;;;;;;;;;;;;;;;1767538;80;20210;-89
2021/05/18 23:32:56;;;;;;;;;;;;;;;;;;1767180;80;20212;-89
2021/05/18 23:35:25;;;;;;;;;;;;;;;;;;1773314;80;20178;-90